Time;durP1;ratioP1;P1;durP2;ratioP2;P2;SDS_P1;SDS_P2;PMS_P1;PMS_P2;Temp;Humidity;BMP_temperature;BMP_pressure;BME280_temperature;BME280_humidity;BME280_pressure;Samples;Min_cycle;Max_cycle;Signal;HPM_P1;HPM_P2
2022/10/25 10:22:53;;;;;;;19.10;5.97;;;;;;;38.26;39.75;101313.13;5108487;27;20537;-71
2022/10/25 10:25:24;;;;;;;21.20;6.97;;;;;;;38.49;39.16;101312.22;5121968;28;20468;-70
2022/10/25 10:27:54;;;;;;;11.73;5.17;;;;;;;37.81;40.01;101310.06;5087761;28;20445;-69
2022/10/25 10:30:27;;;;;;;18.70;6.40;;;;;;;37.78;40.68;101297.91;5089875;28;20503;-69
2022/10/25 10:33:03;;;;;;;17.83;6.13;;;;;;;38.68;39.32;101282.31;5072153;28;20982;-69
2022/10/25 10:35:33;;;;;;;31.63;10.47;;;;;;;38.30;39.74;101279.75;5071504;28;20424;-69
2022/10/25 10:38:25;;;;;;;20.67;10.40;;;;;;;38.72;39.21;101283.31;5087979;28;20839;-68
2022/10/25 10:41:11;;;;;;;31.73;10.60;;;;;;;38.77;39.07;101282.41;5088116;28;20412;-70
2022/10/25 10:43:37;;;;;;;23.93;8.63;;;;;;;38.61;39.50;101282.72;5087980;28;20444;-69
2022/10/25 10:46:13;;;;;;;18.50;7.50;;;;;;;39.30;38.18;101287.31;5087989;28;20920;-69
2022/10/25 10:48:43;;;;;;;12.63;6.63;;;;;;;39.16;38.19;101273.75;5087793;28;20417;-69
2022/10/25 10:51:16;;;;;;;16.03;6.30;;;;;;;39.72;37.53;101270.59;5071281;28;20449;-69
2022/10/25 10:53:42;;;;;;;16.17;8.03;;;;;;;39.68;37.13;101268.78;5087888;28;20481;-69
2022/10/25 10:56:08;;;;;;;29.67;7.23;;;;;;;39.61;37.02;101271.94;5070977;28;20413;-69
2022/10/25 10:58:38;;;;;;;12.73;6.40;;;;;;;39.92;36.92;101280.16;5070752;28;20912;-69
2022/10/25 11:01:07;;;;;;;14.33;8.73;;;;;;;40.27;36.72;101272.22;5070921;28;20504;-69
2022/10/25 11:03:42;;;;;;;11.63;8.20;;;;;;;40.36;36.20;101280.41;5070622;28;20424;-69
2022/10/25 11:06:13;;;;;;;18.47;6.83;;;;;;;40.43;36.05;101267.16;5087778;28;20444;-69
2022/10/25 11:08:40;;;;;;;13.33;6.90;;;;;;;40.61;35.70;101243.56;5087480;28;20421;-68
2022/10/25 11:11:23;;;;;;;18.93;7.90;;;;;;;40.51;35.72;101220.19;5087508;28;20471;-69
2022/10/25 11:13:57;;;;;;;23.03;8.93;;;;;;;40.62;35.75;101183.44;5087306;28;20417;-69
2022/10/25 11:16:41;;;;;;;16.43;6.70;;;;;;;40.65;35.63;101165.69;5087613;28;21023;-69
2022/10/25 11:19:09;;;;;;;15.60;7.87;;;;;;;40.91;35.58;101160.28;5070183;28;20505;-69
2022/10/25 11:21:56;;;;;;;25.70;9.07;;;;;;;41.02;35.09;101147.97;5087488;28;20831;-69
2022/10/25 11:24:52;;;;;;;20.93;9.20;;;;;;;41.09;34.51;101129.22;5073668;28;20417;-69
2022/10/25 11:27:36;;;;;;;19.80;8.77;;;;;;;41.25;34.56;101111.28;5075272;28;20445;-69
2022/10/25 11:30:21;;;;;;;25.90;12.20;;;;;;;41.16;34.20;101112.41;5060723;28;20478;-69
2022/10/25 11:33:21;;;;;;;22.70;10.00;;;;;;;41.23;34.69;101099.09;5073516;28;20481;-69
2022/10/25 11:35:47;;;;;;;13.03;6.23;;;;;;;41.12;34.67;101085.03;5073664;28;20402;-69
2022/10/25 11:38:33;;;;;;;22.83;7.20;;;;;;;41.02;34.84;101072.56;5074622;28;20434;-69
2022/10/25 11:41:15;;;;;;;19.90;10.47;;;;;;;41.01;34.93;101068.25;5056886;28;20229;-69
2022/10/25 11:43:59;;;;;;;19.67;8.03;;;;;;;41.02;35.16;101060.91;5056799;28;20429;-69
2022/10/25 11:46:38;;;;;;;17.87;7.53;;;;;;;40.99;35.23;101056.09;5073289;28;20457;-69
2022/10/25 11:49:31;;;;;;;19.97;13.63;;;;;;;40.88;35.05;101054.78;5073417;28;20425;-71
2022/10/25 11:51:57;;;;;;;20.00;11.27;;;;;;;41.00;35.13;101058.47;5072902;28;21003;-71
2022/10/25 11:54:39;;;;;;;28.17;11.57;;;;;;;41.08;35.09;101062.31;5073226;28;20426;-69
2022/10/25 11:57:26;;;;;;;25.23;11.37;;;;;;;40.88;34.95;101046.63;5073169;28;20207;-69
2022/10/25 12:00:18;;;;;;;22.97;12.03;;;;;;;40.54;35.79;101037.38;5073323;28;20794;-69
2022/10/25 12:03:14;;;;;;;26.90;13.10;;;;;;;40.20;36.29;101030.78;5073480;28;20464;-69
2022/10/25 12:05:59;;;;;;;23.00;11.90;;;;;;;40.22;36.18;101041.34;5026044;28;20771;-69
2022/10/25 12:08:48;;;;;;;19.20;11.17;;;;;;;39.91;37.04;101046.84;5069519;28;20467;-69
2022/10/25 12:11:20;;;;;;;31.73;14.07;;;;;;;39.49;37.72;101049.06;5044915;28;20484;-69
2022/10/25 12:13:53;;;;;;;39.10;19.87;;;;;;;39.35;37.86;101032.03;5074139;28;20425;-69
2022/10/25 12:16:22;;;;;;;28.77;17.60;;;;;;;39.95;36.85;101004.34;5052955;28;20443;-69
2022/10/25 12:19:00;;;;;;;28.20;16.57;;;;;;;40.29;36.49;100998.97;5069299;28;20421;-69
2022/10/25 12:21:31;;;;;;;33.00;16.30;;;;;;;40.55;35.99;100990.03;5072611;28;20457;-69
2022/10/25 12:23:57;;;;;;;27.37;18.53;;;;;;;40.79;35.82;100979.44;5072671;28;20471;-69
2022/10/25 12:26:29;;;;;;;33.93;18.23;;;;;;;40.45;36.31;100979.44;5072783;28;20417;-69
2022/10/25 12:28:59;;;;;;;33.17;18.73;;;;;;;40.59;35.90;100977.41;5072563;28;20417;-69
2022/10/25 12:31:28;;;;;;;25.70;17.97;;;;;;;40.68;36.06;100971.94;5072354;28;20875;-69
2022/10/25 12:34:19;;;;;;;36.50;15.23;;;;;;;40.73;35.92;100974.50;5071593;28;20433;-69
2022/10/25 12:36:54;;;;;;;26.93;15.07;;;;;;;40.71;35.91;100966.66;5058694;28;20444;-71
2022/10/25 12:39:35;;;;;;;24.53;14.70;;;;;;;40.84;35.63;100958.66;5072303;28;20436;-71
2022/10/25 12:42:06;;;;;;;29.23;18.20;;;;;;;40.66;35.41;100944.28;5059996;28;20787;-69
2022/10/25 12:45:03;;;;;;;34.30;18.03;;;;;;;40.30;36.06;100942.69;5053012;28;20419;-69
2022/10/25 12:47:29;;;;;;;27.67;17.00;;;;;;;40.17;35.87;100939.03;5073583;28;20785;-68
2022/10/25 12:50:10;;;;;;;18.40;15.10;;;;;;;40.21;35.84;100926.41;5066832;28;20987;-70
2022/10/25 12:53:25;;;;;;;26.93;15.47;;;;;;;40.22;36.34;100919.84;5069792;28;20187;-70
2022/10/25 12:56:02;;;;;;;30.07;15.57;;;;;;;39.96;36.81;100917.13;5035378;28;20882;-69
2022/10/25 12:58:37;;;;;;;36.10;18.80;;;;;;;39.96;36.77;100917.13;5072722;28;20437;-70
2022/10/25 13:01:12;;;;;;;22.97;17.63;;;;;;;40.41;36.04;100922.22;5062921;28;20464;-70
2022/10/25 13:04:21;;;;;;;34.27;17.00;;;;;;;40.58;35.99;100918.72;5072712;28;20472;-70
2022/10/25 13:06:49;;;;;;;30.37;17.87;;;;;;;40.78;35.65;100904.41;5071389;28;20426;-72
2022/10/25 13:09:19;;;;;;;44.00;16.93;;;;;;;40.84;35.52;100902.31;5071473;28;20523;-70
2022/10/25 13:11:59;;;;;;;36.10;19.23;;;;;;;40.87;35.34;100898.13;5071207;28;20414;-70
2022/10/25 13:14:36;;;;;;;34.90;17.40;;;;;;;40.84;35.11;100894.16;5070741;28;20425;-70
2022/10/25 13:17:17;;;;;;;23.83;14.07;;;;;;;40.95;35.20;100894.63;5072339;28;20445;-70
2022/10/25 13:20:18;;;;;;;13.97;8.00;;;;;;;40.89;35.14;100879.59;5071361;28;20445;-70
2022/10/25 13:22:44;;;;;;;17.13;6.80;;;;;;;41.01;34.74;100877.00;5042451;28;20468;-70
2022/10/25 13:25:32;;;;;;;16.03;6.50;;;;;;;41.07;34.74;100872.97;5054522;28;20429;-70
2022/10/25 13:28:10;;;;;;;12.20;7.67;;;;;;;41.14;34.29;100873.25;5070966;28;20402;-70
2022/10/25 13:30:36;;;;;;;19.90;5.63;;;;;;;41.26;34.58;100884.22;5070724;28;20423;-67
2022/10/25 13:33:22;;;;;;;21.60;7.90;;;;;;;41.09;35.22;100887.03;5054411;28;20512;-68
2022/10/25 13:35:48;;;;;;;20.90;7.13;;;;;;;41.29;35.20;100883.56;5071378;28;20436;-68
2022/10/25 13:38:21;;;;;;;12.43;6.93;;;;;;;41.33;35.21;100886.47;5072371;28;20933;-68
2022/10/25 13:41:10;;;;;;;10.93;6.20;;;;;;;41.39;34.48;100885.16;5071205;28;20199;-68
2022/10/25 13:43:54;;;;;;;19.53;6.33;;;;;;;41.44;34.61;100876.00;5057997;28;20509;-68
2022/10/25 13:46:32;;;;;;;16.10;8.90;;;;;;;41.44;34.62;100876.78;5054894;28;20414;-68
2022/10/25 13:49:00;;;;;;;33.57;18.17;;;;;;;41.43;34.89;100875.16;5071215;28;20508;-68
2022/10/25 13:51:30;;;;;;;30.47;20.67;;;;;;;41.48;35.02;100874.19;5071148;28;20413;-67
2022/10/25 13:54:01;;;;;;;26.27;18.53;;;;;;;41.44;35.00;100865.91;5072522;28;20432;-68
2022/10/25 13:56:27;;;;;;;42.17;21.50;;;;;;;41.28;35.20;100867.56;5070945;28;20443;-67
2022/10/25 13:58:55;;;;;;;25.20;12.30;;;;;;;41.26;34.88;100867.09;5071218;28;20992;-68
2022/10/25 14:01:41;;;;;;;14.40;8.60;;;;;;;41.30;34.74;100870.75;5071091;28;20225;-68
2022/10/25 14:04:34;;;;;;;17.80;7.33;;;;;;;41.45;34.39;100869.41;5058745;28;20418;-68
2022/10/25 14:07:37;;;;;;;13.70;7.27;;;;;;;41.42;34.28;100857.25;5070946;28;20417;-68
2022/10/25 14:10:05;;;;;;;10.67;5.93;;;;;;;41.44;34.62;100859.66;5071238;28;20752;-68
2022/10/25 14:12:32;;;;;;;14.00;7.97;;;;;;;41.52;34.87;100859.59;5051163;28;20446;-68
2022/10/25 14:15:08;;;;;;;15.20;6.70;;;;;;;41.55;34.36;100863.56;5064836;28;20434;-69
2022/10/25 14:17:42;;;;;;;22.73;6.73;;;;;;;41.59;34.59;100861.78;5062898;28;20449;-68
2022/10/25 14:20:27;;;;;;;17.57;8.00;;;;;;;41.59;34.19;100857.13;5053593;28;20725;-68
2022/10/25 14:23:06;;;;;;;13.17;5.13;;;;;;;41.69;34.06;100847.78;5066997;28;20536;-70
2022/10/25 14:25:40;;;;;;;12.10;5.47;;;;;;;41.66;34.12;100851.16;5070354;28;20417;-67
2022/10/25 14:28:09;;;;;;;17.23;6.37;;;;;;;41.61;34.24;100852.13;5064732;28;20491;-67
2022/10/25 14:30:43;;;;;;;11.23;4.57;;;;;;;41.70;34.14;100860.25;5067969;28;20424;-67
2022/10/25 14:33:29;;;;;;;12.07;5.20;;;;;;;41.64;34.13;100850.69;5067900;28;20413;-70
2022/10/25 14:36:08;;;;;;;20.63;5.77;;;;;;;41.55;33.96;100847.22;5053401;28;20524;-68
2022/10/25 14:38:47;;;;;;;10.40;4.83;;;;;;;41.65;34.03;100833.22;5068824;28;20492;-68
2022/10/25 14:41:13;;;;;;;19.10;6.87;;;;;;;41.55;34.52;100837.13;5053949;28;20452;-67
2022/10/25 14:43:41;;;;;;;14.17;5.00;;;;;;;41.47;34.18;100834.47;5057084;28;20442;-68
2022/10/25 14:46:14;;;;;;;11.10;5.30;;;;;;;41.53;34.47;100835.88;5055310;28;20188;-70
2022/10/25 14:48:45;;;;;;;14.80;5.97;;;;;;;41.46;34.29;100838.34;5063628;28;20418;-70
2022/10/25 14:51:13;;;;;;;14.90;6.30;;;;;;;41.44;34.62;100835.16;5071046;28;20476;-67
2022/10/25 14:53:52;;;;;;;20.73;6.77;;;;;;;41.57;33.96;100836.81;5063476;28;20414;-68
2022/10/25 14:56:26;;;;;;;15.90;7.07;;;;;;;41.54;34.02;100842.91;5068414;28;20421;-68
2022/10/25 14:58:54;;;;;;;10.93;6.73;;;;;;;41.67;34.00;100836.38;5084620;28;20504;-67
2022/10/25 15:01:21;;;;;;;17.93;6.73;;;;;;;41.70;33.75;100840.41;5068172;28;20877;-68
2022/10/25 15:03:50;;;;;;;22.30;7.30;;;;;;;41.74;34.08;100855.78;5072162;28;20418;-68
2022/10/25 15:06:19;;;;;;;13.10;6.40;;;;;;;41.78;34.03;100848.50;5064038;28;20414;-69
2022/10/25 15:08:45;;;;;;;12.00;5.37;;;;;;;41.74;33.59;100844.88;5064900;28;20414;-70
2022/10/25 15:11:17;;;;;;;16.50;5.27;;;;;;;41.73;33.48;100847.88;5072766;28;20531;-69
2022/10/25 15:13:46;;;;;;;14.17;5.33;;;;;;;41.75;33.44;100851.91;5070642;28;20430;-70
2022/10/25 15:16:42;;;;;;;19.27;7.40;;;;;;;41.66;34.01;100839.44;5072450;28;20445;-68
2022/10/25 15:19:08;;;;;;;14.10;6.87;;;;;;;41.61;33.74;100840.44;5062760;28;20421;-67
2022/10/25 15:21:46;;;;;;;14.10;6.10;;;;;;;41.64;33.87;100839.00;5072011;28;20473;-68
2022/10/25 15:24:19;;;;;;;18.77;5.90;;;;;;;41.76;33.81;100839.88;5055844;28;20254;-68
2022/10/25 15:27:04;;;;;;;21.67;7.87;;;;;;;41.99;33.17;100850.41;5070639;28;20410;-68
2022/10/25 15:29:39;;;;;;;20.67;6.63;;;;;;;42.14;32.61;100847.06;5034711;28;20421;-69
2022/10/25 15:32:17;;;;;;;19.30;6.90;;;;;;;42.08;32.36;100849.19;5064176;28;20941;-68
2022/10/25 15:34:52;;;;;;;16.10;8.23;;;;;;;41.90;32.43;100834.16;5061603;28;20418;-70
2022/10/25 15:37:20;;;;;;;17.23;7.30;;;;;;;41.89;32.33;100848.13;5067546;28;20475;-70
2022/10/25 15:39:49;;;;;;;16.60;6.70;;;;;;;41.88;32.77;100855.50;5067164;28;21005;-70
2022/10/25 15:42:15;;;;;;;13.70;7.30;;;;;;;41.85;32.64;100854.22;5071605;28;20453;-73
2022/10/25 15:44:41;;;;;;;15.17;9.17;;;;;;;41.92;32.95;100861.06;5069593;28;20460;-71
2022/10/25 15:47:32;;;;;;;13.30;7.53;;;;;;;41.95;32.41;100863.13;5055127;28;20449;-71
2022/10/25 15:50:00;;;;;;;16.63;5.77;;;;;;;41.88;32.52;100863.66;5070113;28;20860;-71
2022/10/25 15:52:26;;;;;;;8.17;5.87;;;;;;;41.89;32.42;100872.63;5062989;28;20426;-71
2022/10/25 15:54:52;;;;;;;13.53;5.90;;;;;;;41.96;32.58;100875.63;5068035;28;20433;-71
2022/10/25 15:57:19;;;;;;;17.27;5.00;;;;;;;41.92;32.52;100882.84;5071298;28;20421;-71
2022/10/25 15:59:45;;;;;;;12.07;6.50;;;;;;;41.80;33.02;100880.88;5066282;28;20426;-70
2022/10/25 16:02:30;;;;;;;11.80;6.60;;;;;;;41.86;32.70;100882.25;5072100;28;20833;-71
2022/10/25 16:04:56;;;;;;;16.30;5.40;;;;;;;41.89;32.71;100876.16;5067884;28;20506;-70
2022/10/25 16:07:23;;;;;;;16.30;5.97;;;;;;;41.84;32.53;100881.81;5069890;28;20417;-70
2022/10/25 16:09:48;;;;;;;18.63;7.93;;;;;;;41.90;32.62;100879.66;5064978;28;20953;-71
2022/10/25 16:12:25;;;;;;;14.37;5.27;;;;;;;41.88;32.41;100876.50;5062800;28;20414;-72
2022/10/25 16:14:51;;;;;;;15.60;8.00;;;;;;;41.94;32.33;100875.16;5069012;28;20430;-71
2022/10/25 16:17:18;;;;;;;12.80;6.20;;;;;;;41.92;32.18;100874.69;5068679;28;20468;-71
2022/10/25 16:19:44;;;;;;;14.13;7.93;;;;;;;41.99;32.22;100873.03;5073103;28;20406;-71
2022/10/25 16:22:09;;;;;;;16.93;4.93;;;;;;;41.76;32.70;100871.78;5069294;28;20896;-73
2022/10/25 16:24:36;;;;;;;17.70;6.23;;;;;;;41.78;32.75;100867.59;5069685;28;20417;-73
2022/10/25 16:27:01;;;;;;;16.43;8.10;;;;;;;41.78;32.78;100875.75;5071141;28;20430;-73
2022/10/25 16:29:28;;;;;;;11.07;5.47;;;;;;;41.74;32.12;100874.84;5070520;28;20437;-73
2022/10/25 16:31:54;;;;;;;19.77;5.90;;;;;;;41.79;32.43;100888.25;5063685;28;20438;-70
2022/10/25 16:34:20;;;;;;;15.53;6.40;;;;;;;41.89;33.02;100899.88;5071329;28;20410;-70
2022/10/25 16:36:47;;;;;;;13.50;5.10;;;;;;;41.91;33.08;100892.16;5056494;28;20410;-72
2022/10/25 16:39:14;;;;;;;12.20;5.70;;;;;;;41.87;33.14;100892.03;5064971;28;20784;-72
2022/10/25 16:41:42;;;;;;;14.07;6.87;;;;;;;41.83;33.33;100902.00;5071365;28;20849;-72
2022/10/25 16:44:14;;;;;;;14.60;6.77;;;;;;;41.84;33.27;100901.66;5068621;28;20498;-72
2022/10/25 16:46:40;;;;;;;13.23;7.30;;;;;;;41.88;33.16;100914.63;5066464;28;20418;-71
2022/10/25 16:49:10;;;;;;;18.20;7.80;;;;;;;41.82;33.54;100912.09;5063967;28;20949;-71
2022/10/25 16:51:37;;;;;;;14.80;8.43;;;;;;;41.84;33.55;100914.50;5067039;28;20409;-70
2022/10/25 16:54:04;;;;;;;22.67;10.97;;;;;;;41.79;33.19;100912.75;5064264;28;20421;-70
2022/10/25 16:56:30;;;;;;;16.67;10.60;;;;;;;41.79;33.00;100912.75;5053604;28;20476;-72
2022/10/25 16:58:56;;;;;;;17.03;11.17;;;;;;;41.80;33.05;100914.34;5070318;28;21064;-72
2022/10/25 17:01:35;;;;;;;16.03;9.20;;;;;;;41.80;33.09;100917.06;5068467;28;20461;-71
2022/10/25 17:04:03;;;;;;;18.30;8.90;;;;;;;41.76;33.27;100916.16;5056779;28;20421;-70
2022/10/25 17:06:29;;;;;;;18.53;10.07;;;;;;;41.74;33.41;100910.25;5051374;28;20415;-70
2022/10/25 17:08:55;;;;;;;16.30;10.90;;;;;;;41.73;33.25;100914.06;5064859;28;20431;-70
2022/10/25 17:11:21;;;;;;;19.57;10.33;;;;;;;41.67;33.43;100915.38;5068868;28;20426;-70
2022/10/25 17:13:47;;;;;;;20.00;9.77;;;;;;;41.66;33.59;100916.50;5068212;28;20415;-73
2022/10/25 17:16:15;;;;;;;20.03;12.03;;;;;;;41.71;33.79;100919.03;5065109;28;20574;-71
2022/10/25 17:18:41;;;;;;;17.80;11.57;;;;;;;41.67;33.94;100917.31;5068099;28;20416;-67
2022/10/25 17:21:10;;;;;;;17.33;10.00;;;;;;;41.60;33.46;100917.84;5067920;28;20465;-67
2022/10/25 17:23:36;;;;;;;16.20;10.60;;;;;;;41.57;33.53;100923.97;5066763;28;20426;-67
2022/10/25 17:26:03;;;;;;;14.40;9.13;;;;;;;41.56;33.32;100919.63;5071284;28;20422;-68
2022/10/25 17:28:30;;;;;;;13.87;9.23;;;;;;;41.47;33.09;100932.50;5071275;28;20417;-67
2022/10/25 17:30:56;;;;;;;20.97;11.30;;;;;;;41.52;32.92;100933.09;5067483;28;20943;-68
2022/10/25 17:33:22;;;;;;;15.63;8.70;;;;;;;41.48;33.67;100929.44;5068107;28;20429;-67
2022/10/25 17:35:48;;;;;;;23.47;10.67;;;;;;;41.60;33.51;100947.78;5056994;28;20417;-68
2022/10/25 17:38:15;;;;;;;22.60;10.40;;;;;;;41.66;33.67;100951.91;5053429;28;20426;-70
2022/10/25 17:40:43;;;;;;;20.43;11.33;;;;;;;41.61;33.88;100955.63;5058575;28;21015;-71
2022/10/25 17:43:12;;;;;;;24.60;13.47;;;;;;;41.54;34.03;100954.56;5063049;28;20427;-72
2022/10/25 17:45:39;;;;;;;19.93;13.03;;;;;;;41.54;34.03;100960.78;5059618;28;20471;-71
2022/10/25 17:48:05;;;;;;;29.50;14.87;;;;;;;41.45;34.33;100956.53;5051837;28;20424;-74
2022/10/25 17:50:31;;;;;;;29.03;22.00;;;;;;;41.44;34.27;100953.03;5066657;28;20413;-71
2022/10/25 17:52:57;;;;;;;30.10;22.80;;;;;;;41.41;34.59;100961.03;5063821;28;20893;-71
2022/10/25 17:55:26;;;;;;;23.63;19.20;;;;;;;41.52;34.11;100967.72;5067391;28;20413;-73
2022/10/25 17:57:52;;;;;;;25.67;16.97;;;;;;;41.54;33.97;100965.44;5068362;28;20199;-69
2022/10/25 18:00:18;;;;;;;28.70;17.10;;;;;;;41.55;33.56;100970.56;5065748;28;20505;-72
2022/10/25 18:02:49;;;;;;;33.07;22.37;;;;;;;41.54;33.55;100976.34;5061567;28;20406;-69
2022/10/25 18:05:17;;;;;;;32.53;23.37;;;;;;;41.44;33.56;100977.53;5055295;28;20431;-70
2022/10/25 18:07:43;;;;;;;41.30;27.97;;;;;;;41.44;33.68;100974.81;5060874;28;20495;-70
2022/10/25 18:10:09;;;;;;;30.20;24.77;;;;;;;41.42;33.73;100979.75;5062998;28;21025;-69
2022/10/25 18:12:35;;;;;;;46.30;30.33;;;;;;;41.41;34.46;100980.09;5064325;28;20579;-71
2022/10/25 18:15:01;;;;;;;41.63;31.77;;;;;;;41.41;34.25;100988.25;5058215;28;20533;-71
2022/10/25 18:17:27;;;;;;;39.60;31.80;;;;;;;41.39;34.38;100990.53;5062368;28;20508;-70
2022/10/25 18:19:53;;;;;;;44.37;31.10;;;;;;;41.36;33.96;100991.97;5065656;28;20809;-70
2022/10/25 18:22:20;;;;;;;46.83;33.13;;;;;;;41.36;34.49;100985.72;5066639;28;20523;-70
2022/10/25 18:24:46;;;;;;;36.40;29.30;;;;;;;41.31;33.87;100995.66;5067477;28;20425;-69
2022/10/25 18:27:12;;;;;;;60.03;39.27;;;;;;;41.25;33.86;100996.97;5051603;28;20821;-70
2022/10/25 18:29:38;;;;;;;53.93;43.80;;;;;;;41.26;34.22;101004.00;5066597;28;20961;-71
2022/10/25 18:32:04;;;;;;;57.70;41.80;;;;;;;41.33;34.25;101009.75;5063612;28;20409;-69
2022/10/25 18:34:30;;;;;;;56.90;41.20;;;;;;;41.37;34.28;101014.53;5064622;28;20425;-70
2022/10/25 18:36:56;;;;;;;50.80;38.10;;;;;;;41.45;33.63;101021.88;5066033;28;20448;-70
2022/10/25 18:39:22;;;;;;;56.03;39.23;;;;;;;41.48;33.81;101027.47;5070999;22;20238;-70
2022/10/25 18:41:48;;;;;;;50.03;38.87;;;;;;;41.47;34.16;101022.34;5054064;28;20527;-71
2022/10/25 18:44:15;;;;;;;58.07;36.10;;;;;;;41.43;34.15;101015.94;5041318;28;20426;-69
2022/10/25 18:46:41;;;;;;;56.73;39.60;;;;;;;41.37;33.76;101015.34;5041393;28;20564;-68
2022/10/25 18:49:11;;;;;;;57.37;36.80;;;;;;;41.33;34.12;101025.28;5057130;28;21012;-71
2022/10/25 18:51:37;;;;;;;43.83;36.93;;;;;;;41.38;33.63;101032.50;5051225;28;20431;-68
2022/10/25 18:54:03;;;;;;;81.17;37.67;;;;;;;41.25;33.81;101043.22;5051617;28;20513;-69
2022/10/25 18:56:30;;;;;;;48.70;36.83;;;;;;;41.30;33.96;101043.03;5051075;28;20517;-68
2022/10/25 18:58:57;;;;;;;56.03;41.93;;;;;;;41.28;34.22;101049.94;5037351;28;20411;-68
2022/10/25 19:01:27;;;;;;;60.00;41.90;;;;;;;41.31;34.29;101055.53;5053946;28;20470;-70
2022/10/25 19:03:56;;;;;;;54.30;40.40;;;;;;;41.33;34.11;101050.59;5054065;28;20423;-67
2022/10/25 19:06:22;;;;;;;57.53;43.47;;;;;;;41.33;33.82;101049.81;5055100;28;20422;-70
2022/10/25 19:08:48;;;;;;;49.50;40.43;;;;;;;41.34;33.94;101054.91;5055381;28;21026;-72
2022/10/25 19:11:15;;;;;;;57.40;41.30;;;;;;;41.39;33.75;101048.50;5070517;28;20965;-70
2022/10/25 19:13:41;;;;;;;59.07;42.93;;;;;;;41.33;33.94;101052.53;5041095;28;21010;-70
2022/10/25 19:16:08;;;;;;;63.90;44.67;;;;;;;41.29;34.05;101060.50;5056671;28;20450;-70
2022/10/25 19:18:36;;;;;;;40.83;30.70;;;;;;;41.24;33.87;101066.09;5033714;28;20446;-70
2022/10/25 19:21:10;;;;;;;63.67;51.50;;;;;;;40.98;35.00;101068.91;5031686;28;21032;-70
2022/10/25 19:23:38;;;;;;;81.57;60.00;;;;;;;40.38;36.68;101069.66;5047813;28;20435;-70
2022/10/25 19:26:06;;;;;;;75.33;54.47;;;;;;;40.42;36.73;101080.69;5029467;28;20439;-70
2022/10/25 19:28:33;;;;;;;60.33;51.70;;;;;;;40.08;37.45;101076.78;5015868;28;20431;-69
2022/10/25 19:31:15;;;;;;;59.57;53.30;;;;;;;40.14;37.84;101097.25;5032571;28;20997;-70
2022/10/25 19:33:49;;;;;;;79.33;56.17;;;;;;;40.52;37.67;101099.47;5032903;28;20855;-70
2022/10/25 19:36:16;;;;;;;66.77;52.97;;;;;;;40.61;36.67;101102.16;5031346;28;20484;-69
2022/10/25 19:38:47;;;;;;;69.87;52.37;;;;;;;40.33;37.57;101112.47;5047915;28;20471;-70
2022/10/25 19:41:17;;;;;;;57.43;48.23;;;;;;;40.51;37.73;101120.38;5031780;28;20463;-70
2022/10/25 19:43:44;;;;;;;56.23;45.00;;;;;;;40.62;37.15;101118.16;5031677;28;20454;-71
2022/10/25 19:46:10;;;;;;;59.57;44.47;;;;;;;40.77;36.81;101127.78;5029090;28;20446;-70
2022/10/25 19:48:36;;;;;;;80.30;50.07;;;;;;;40.83;36.69;101125.69;5031678;28;20514;-69
2022/10/25 19:51:08;;;;;;;52.50;42.47;;;;;;;40.34;36.81;101125.78;5032652;28;20574;-70
2022/10/25 19:53:35;;;;;;;58.57;38.40;;;;;;;40.21;37.23;101124.00;5031212;28;20453;-71
2022/10/25 19:56:04;;;;;;;55.30;38.60;;;;;;;40.52;37.25;101126.66;5030839;28;20503;-70
2022/10/25 19:58:30;;;;;;;51.10;38.90;;;;;;;40.51;37.06;101117.66;5029433;28;20458;-72
2022/10/25 20:01:18;;;;;;;54.03;39.50;;;;;;;40.83;36.76;101131.94;5027611;28;20518;-70
2022/10/25 20:03:45;;;;;;;58.50;37.90;;;;;;;40.92;36.56;101124.59;5031641;28;20447;-69
2022/10/25 20:06:20;;;;;;;55.50;41.37;;;;;;;41.01;35.95;101140.94;5033365;28;20446;-70
2022/10/25 20:08:46;;;;;;;58.53;38.10;;;;;;;40.92;36.49;101129.25;5027726;28;20442;-72
2022/10/25 20:11:13;;;;;;;49.73;37.63;;;;;;;40.92;36.66;101140.13;5010267;28;20963;-71
2022/10/25 20:13:40;;;;;;;50.03;38.00;;;;;;;41.04;36.16;101137.56;5022994;28;21024;-70
2022/10/25 20:16:07;;;;;;;52.50;40.90;;;;;;;41.08;35.74;101142.03;5048978;28;20963;-73
2022/10/25 20:18:37;;;;;;;56.13;42.37;;;;;;;41.17;35.63;101149.38;5041561;28;20447;-70
2022/10/25 20:21:06;;;;;;;64.67;49.10;;;;;;;41.03;36.04;101149.56;5013159;28;20984;-71
2022/10/25 20:23:32;;;;;;;72.53;57.37;;;;;;;40.90;36.16;101148.63;5021950;28;20510;-70
2022/10/25 20:25:59;;;;;;;69.07;55.73;;;;;;;40.75;36.61;101152.56;5029749;28;20419;-70
2022/10/25 20:28:26;;;;;;;68.07;55.30;;;;;;;40.52;36.66;101154.63;5027601;28;20486;-70
2022/10/25 20:31:00;;;;;;;67.50;54.03;;;;;;;40.52;36.93;101159.28;5033133;28;20451;-73
2022/10/25 20:33:26;;;;;;;71.10;56.27;;;;;;;40.52;37.09;101159.28;5031863;28;20848;-73
2022/10/25 20:35:52;;;;;;;57.03;48.13;;;;;;;40.61;36.97;101159.28;5033204;28;20416;-70
2022/10/25 20:38:19;;;;;;;54.93;40.20;;;;;;;40.31;36.88;101163.66;5033008;28;20286;-70
2022/10/25 20:40:45;;;;;;;55.23;40.87;;;;;;;39.92;37.85;101167.97;5031135;28;20459;-72
2022/10/25 20:43:11;;;;;;;45.97;38.67;;;;;;;40.39;37.09;101171.03;5046684;28;20188;-72
2022/10/25 20:45:40;;;;;;;50.67;37.50;;;;;;;40.63;37.17;101165.19;5029759;28;20667;-71
2022/10/25 20:48:06;;;;;;;52.77;39.07;;;;;;;40.70;36.73;101169.06;5032226;28;20762;-72
2022/10/25 20:50:32;;;;;;;53.27;39.17;;;;;;;40.83;36.54;101172.75;5033221;28;20432;-69
2022/10/25 20:52:58;;;;;;;53.63;41.10;;;;;;;40.91;36.35;101171.16;5031322;28;20415;-71
2022/10/25 20:55:26;;;;;;;48.30;39.40;;;;;;;41.04;36.27;101165.56;5025804;28;20420;-70
2022/10/25 20:57:52;;;;;;;53.13;36.70;;;;;;;41.02;36.05;101150.69;5032260;28;20434;-70
2022/10/25 21:00:18;;;;;;;48.90;36.27;;;;;;;41.02;36.11;101158.84;5031733;28;21002;-70
2022/10/25 21:02:43;;;;;;;53.80;41.10;;;;;;;40.97;35.61;101165.25;5030212;28;20550;-70
2022/10/25 21:05:10;;;;;;;51.57;40.70;;;;;;;40.88;35.88;101166.31;5032399;28;20495;-70
2022/10/25 21:07:37;;;;;;;59.93;43.70;;;;;;;40.90;36.33;101169.53;5030343;28;20483;-70
2022/10/25 21:10:03;;;;;;;57.97;43.67;;;;;;;40.88;36.17;101166.31;5031393;28;20416;-70
2022/10/25 21:12:29;;;;;;;57.20;45.13;;;;;;;40.89;35.81;101160.59;5032736;28;20415;-70
2022/10/25 21:14:55;;;;;;;57.83;43.97;;;;;;;40.97;35.98;101165.25;5027473;28;20447;-70
2022/10/25 21:17:21;;;;;;;56.90;42.57;;;;;;;40.94;36.20;101165.06;5043606;28;20456;-70
2022/10/25 21:19:47;;;;;;;56.23;40.53;;;;;;;41.01;35.82;101160.78;5030618;28;20423;-70
2022/10/25 21:22:13;;;;;;;55.57;41.10;;;;;;;40.93;35.86;101158.84;4997634;28;20466;-70
2022/10/25 21:24:39;;;;;;;59.73;43.27;;;;;;;40.99;35.72;101163.00;5030324;28;20703;-70
2022/10/25 21:27:06;;;;;;;61.00;44.60;;;;;;;40.96;36.04;101168.28;5047135;28;20434;-70
2022/10/25 21:29:32;;;;;;;54.87;43.20;;;;;;;41.03;35.95;101169.41;5029852;28;20461;-70
2022/10/25 21:31:58;;;;;;;58.30;43.80;;;;;;;40.98;35.45;101166.03;5028633;28;20443;-69
2022/10/25 21:34:24;;;;;;;56.43;48.07;;;;;;;40.96;36.02;101169.09;5030281;28;20420;-70
2022/10/25 21:36:50;;;;;;;51.63;42.93;;;;;;;40.75;36.27;101171.59;5046824;28;20427;-69
2022/10/25 21:39:21;;;;;;;59.10;42.70;;;;;;;40.71;36.27;101165.22;5046513;28;20854;-72
2022/10/25 21:41:47;;;;;;;57.40;43.30;;;;;;;40.71;36.34;101172.56;5030159;28;20463;-73
2022/10/25 21:44:13;;;;;;;65.10;47.03;;;;;;;40.55;36.57;101173.00;5029860;28;20450;-73
2022/10/25 21:46:39;;;;;;;67.77;46.87;;;;;;;40.07;37.37;101164.84;5045229;22;20896;-69
2022/10/25 21:49:05;;;;;;;50.70;39.63;;;;;;;40.07;37.36;101164.06;5012011;28;20997;-70
2022/10/25 21:51:31;;;;;;;54.83;40.70;;;;;;;39.73;37.81;101162.75;5011601;28;20428;-71
2022/10/25 21:54:00;;;;;;;60.23;43.67;;;;;;;39.84;37.85;101160.56;5020432;28;20176;-70